createdAt,value
2023-02-15T00:02:46.527Z,36.00
2023-02-15T00:07:40.063Z,36.83
2023-02-15T00:12:33.832Z,31.88
2023-02-15T00:17:30.052Z,32.05
2023-02-15T00:22:23.505Z,28.90
2023-02-15T00:27:17.061Z,26.25
2023-02-15T00:32:10.284Z,27.58
2023-02-15T00:37:03.542Z,29.67
2023-02-15T00:41:57.178Z,29.08
2023-02-15T00:46:50.595Z,26.92
2023-02-15T00:51:43.819Z,30.38
2023-02-15T00:56:36.990Z,26.75
2023-02-15T01:01:30.266Z,23.92
2023-02-15T01:06:23.668Z,26.17
2023-02-15T01:11:23.544Z,22.75
2023-02-15T01:16:20.085Z,23.70
2023-02-15T01:21:14.904Z,24.38
2023-02-15T01:26:10.545Z,24.63
2023-02-15T01:31:11.433Z,23.80
2023-02-15T01:36:05.568Z,24.27
2023-02-15T01:41:16.485Z,25.67
2023-02-15T01:46:11.576Z,25.65
2023-02-15T01:51:05.231Z,27.60
2023-02-15T01:56:05.637Z,22.08
2023-02-15T02:01:01.504Z,23.88
2023-02-15T02:05:55.694Z,23.30
2023-02-15T02:10:49.421Z,21.70
2023-02-15T02:16:02.324Z,23.77
2023-02-15T02:21:18.899Z,23.92
2023-02-15T02:26:29.206Z,19.27
2023-02-15T02:32:01.031Z,20.13
2023-02-15T02:37:14.183Z,24.75
2023-02-15T02:42:21.391Z,19.73
2023-02-15T02:47:19.899Z,17.33
2023-02-15T02:52:48.492Z,20.85
2023-02-15T02:57:51.423Z,18.92
2023-02-15T03:02:46.993Z,23.85
2023-02-15T03:07:41.769Z,20.17
2023-02-15T03:12:37.886Z,18.77
2023-02-15T03:17:46.951Z,18.40
2023-02-15T03:22:47.594Z,19.40
2023-02-15T03:27:42.854Z,21.70
2023-02-15T03:32:36.205Z,22.48
2023-02-15T03:37:40.476Z,26.38
2023-02-15T03:42:35.465Z,25.80
2023-02-15T03:47:32.445Z,22.40
2023-02-15T03:52:28.041Z,21.38
2023-02-15T03:57:43.753Z,18.50
2023-02-15T04:03:18.839Z,18.25
2023-02-15T04:08:13.610Z,19.45
2023-02-15T04:13:07.157Z,18.08
2023-02-15T04:18:01.139Z,19.98
2023-02-15T04:23:12.498Z,17.20
2023-02-15T04:28:05.818Z,19.92
2023-02-15T04:32:59.114Z,21.45
2023-02-15T04:37:53.363Z,21.08
2023-02-15T04:42:48.088Z,20.48
2023-02-15T04:47:40.660Z,17.38
2023-02-15T04:52:34.988Z,23.67
2023-02-15T04:57:28.152Z,19.70
2023-02-15T05:02:21.720Z,20.00
2023-02-15T05:07:16.332Z,18.88
2023-02-15T05:12:10.376Z,20.08
2023-02-15T05:17:04.947Z,17.52
2023-02-15T05:21:57.278Z,17.95
2023-02-15T05:27:09.125Z,18.70
2023-02-15T05:32:02.077Z,15.05
2023-02-15T05:36:55.655Z,17.02
2023-02-15T05:41:49.304Z,13.18
2023-02-15T05:46:43.668Z,13.45
2023-02-15T05:51:36.493Z,16.00
2023-02-15T05:56:29.511Z,21.25
2023-02-15T06:01:24.713Z,11.77
2023-02-15T06:06:17.842Z,12.95
2023-02-15T06:11:11.800Z,16.45
2023-02-15T06:16:05.843Z,16.88
2023-02-15T06:20:59.465Z,15.60
2023-02-15T06:25:52.305Z,15.65
2023-02-15T06:30:46.201Z,23.15
2023-02-15T06:35:39.445Z,12.77
2023-02-15T06:40:33.193Z,17.25
2023-02-15T06:45:26.312Z,24.45
2023-02-15T06:50:20.326Z,12.25
2023-02-15T06:55:13.186Z,14.05
2023-02-15T07:00:08.545Z,17.63
2023-02-15T07:05:02.547Z,17.88
2023-02-15T07:09:55.624Z,19.80
2023-02-15T07:14:48.036Z,17.45
2023-02-15T07:19:41.022Z,17.55
2023-02-15T07:24:33.698Z,18.73
2023-02-15T07:29:27.333Z,16.80
2023-02-15T07:34:20.857Z,15.60
2023-02-15T07:39:15.125Z,26.45
2023-02-15T07:44:14.280Z,19.67
2023-02-15T07:49:07.728Z,25.05
2023-02-15T07:54:00.933Z,21.10
2023-02-15T07:58:55.636Z,18.40
2023-02-15T08:03:49.064Z,16.60
2023-02-15T08:08:43.418Z,15.95
2023-02-15T08:13:54.901Z,16.00
2023-02-15T08:18:47.609Z,14.75
2023-02-15T08:23:41.577Z,15.18
2023-02-15T08:28:35.050Z,18.60
2023-02-15T08:33:29.625Z,18.80
2023-02-15T08:38:22.506Z,21.92
2023-02-15T08:43:15.122Z,25.42
2023-02-15T08:48:09.055Z,19.55
2023-02-15T08:53:02.831Z,35.65
2023-02-15T08:57:56.869Z,24.23
2023-02-15T09:02:50.165Z,27.85
2023-02-15T09:07:44.036Z,31.83
2023-02-15T09:12:38.012Z,34.03
2023-02-15T09:17:31.999Z,29.25
2023-02-15T09:22:26.005Z,34.05
2023-02-15T09:27:19.600Z,44.97
2023-02-15T09:32:16.974Z,42.10
2023-02-15T09:37:10.444Z,32.92
2023-02-15T09:42:11.746Z,32.75
2023-02-15T09:47:27.994Z,32.38
2023-02-15T09:52:36.361Z,33.17
2023-02-15T09:57:54.500Z,39.83
2023-02-15T10:03:38.830Z,31.98
2023-02-15T10:08:37.977Z,32.70
2023-02-15T10:13:48.296Z,35.70
2023-02-15T10:19:01.435Z,42.20
2023-02-15T10:24:05.127Z,36.33
2023-02-15T10:29:23.117Z,45.80
2023-02-15T10:34:27.915Z,42.40
2023-02-15T10:40:05.766Z,38.25
2023-02-15T10:45:22.821Z,38.28
2023-02-15T10:50:26.324Z,46.03
2023-02-15T10:55:32.056Z,40.90
2023-02-15T11:00:52.496Z,43.08
2023-02-15T11:05:59.114Z,51.13
2023-02-15T11:11:03.957Z,47.22
2023-02-15T11:16:05.336Z,42.83
2023-02-15T11:21:01.456Z,42.75
2023-02-15T11:26:01.103Z,41.70
2023-02-15T11:30:57.481Z,45.67
2023-02-15T11:36:03.790Z,57.78
2023-02-15T11:41:05.729Z,48.70
2023-02-15T11:45:59.217Z,53.28
2023-02-15T11:50:52.426Z,57.40
2023-02-15T11:55:46.855Z,50.90
2023-02-15T12:00:46.534Z,50.65
2023-02-15T12:05:42.168Z,56.80
2023-02-15T12:11:25.736Z,48.72
2023-02-15T12:16:20.235Z,51.55
2023-02-15T12:21:17.329Z,50.05
2023-02-15T12:26:10.039Z,60.25
2023-02-15T12:31:06.216Z,55.47
2023-02-15T12:36:03.281Z,53.60
2023-02-15T12:41:01.857Z,54.17
2023-02-15T12:45:55.613Z,52.53
2023-02-15T12:50:57.776Z,53.58
2023-02-15T12:55:59.495Z,49.60
2023-02-15T13:01:04.901Z,53.40
2023-02-15T13:06:00.270Z,50.00
2023-02-15T13:10:55.337Z,57.42
2023-02-15T13:15:51.442Z,52.83
2023-02-15T13:20:46.154Z,50.15
2023-02-15T13:25:51.877Z,52.47
2023-02-15T13:30:47.496Z,61.10
2023-02-15T13:35:56.119Z,58.40
2023-02-15T13:41:00.061Z,60.33
2023-02-15T13:46:15.410Z,62.17
2023-02-15T13:51:15.020Z,63.33
2023-02-15T13:56:37.931Z,54.47
2023-02-15T14:02:05.401Z,57.28
2023-02-15T14:07:21.165Z,48.45
2023-02-15T14:12:25.842Z,51.33
2023-02-15T14:17:27.373Z,51.60
2023-02-15T14:22:21.321Z,51.92
2023-02-15T14:27:30.153Z,52.40
2023-02-15T14:32:27.572Z,53.10
2023-02-15T14:37:41.060Z,52.90
2023-02-15T14:42:50.554Z,47.65
2023-02-15T14:47:47.433Z,56.42
2023-02-15T14:53:18.363Z,57.13
2023-02-15T14:58:14.379Z,48.05
2023-02-15T15:03:26.204Z,53.20
2023-02-15T15:08:40.149Z,50.03
2023-02-15T15:13:33.562Z,48.88
2023-02-15T15:18:56.036Z,49.47
2023-02-15T15:24:08.365Z,49.33
2023-02-15T15:29:41.052Z,54.28
2023-02-15T15:34:55.845Z,58.90
2023-02-15T15:40:14.572Z,56.25
2023-02-15T15:45:45.003Z,57.35
2023-02-15T15:50:41.514Z,63.92
2023-02-15T15:55:35.685Z,56.17
2023-02-15T16:00:46.137Z,73.80
2023-02-15T16:05:40.566Z,63.17
2023-02-15T16:10:34.124Z,65.82
2023-02-15T16:15:51.118Z,56.33
2023-02-15T16:20:54.959Z,56.63
2023-02-15T16:26:13.559Z,61.28
2023-02-15T16:31:13.150Z,66.15
2023-02-15T16:36:09.351Z,59.50
2023-02-15T16:41:03.252Z,58.72
2023-02-15T16:46:08.085Z,58.08
2023-02-15T16:51:01.783Z,55.72
2023-02-15T16:55:58.485Z,57.88
2023-02-15T17:00:51.756Z,64.53
2023-02-15T17:05:50.257Z,56.85
2023-02-15T17:10:44.206Z,79.13
2023-02-15T17:15:39.918Z,73.38
2023-02-15T17:20:37.065Z,88.60
2023-02-15T17:25:41.408Z,61.03
2023-02-15T17:30:36.160Z,70.55
2023-02-15T17:36:25.029Z,102.95
2023-02-15T17:41:19.525Z,63.35
2023-02-15T17:46:12.497Z,87.72
2023-02-15T17:51:07.472Z,73.53
2023-02-15T17:56:00.308Z,78.80
2023-02-15T18:01:15.108Z,72.40
2023-02-15T18:06:27.087Z,61.42
2023-02-15T18:11:54.977Z,72.05
2023-02-15T18:16:47.978Z,86.40
2023-02-15T18:21:40.736Z,78.88
2023-02-15T18:26:33.722Z,82.55
2023-02-15T18:31:26.882Z,83.30
2023-02-15T18:36:33.569Z,77.03
2023-02-15T18:41:27.387Z,75.85
2023-02-15T18:46:21.326Z,90.40
2023-02-15T18:51:19.908Z,73.80
2023-02-15T19:01:17.440Z,82.15
2023-02-15T19:06:13.189Z,71.88
2023-02-15T19:11:06.484Z,70.63
2023-02-15T19:16:05.973Z,81.25
2023-02-15T19:21:00.790Z,76.35
2023-02-15T19:25:53.980Z,75.28
2023-02-15T19:30:47.870Z,85.22
2023-02-15T19:35:41.102Z,96.35
2023-02-15T19:40:38.141Z,75.28
2023-02-15T19:45:34.508Z,77.60
2023-02-15T19:50:30.574Z,80.82
2023-02-15T19:55:31.947Z,77.28
2023-02-15T20:00:27.504Z,82.40
2023-02-15T20:05:21.282Z,79.60
2023-02-15T20:10:18.519Z,84.53
2023-02-15T20:15:35.545Z,66.22
2023-02-15T20:20:34.306Z,64.65
2023-02-15T20:25:32.178Z,80.13
2023-02-15T20:30:28.135Z,67.15
2023-02-15T20:35:24.460Z,62.00
2023-02-15T20:40:20.686Z,65.10
2023-02-15T20:45:20.405Z,66.07
2023-02-15T20:50:14.804Z,86.45
2023-02-15T20:55:23.242Z,93.80
2023-02-15T21:00:20.690Z,64.50
2023-02-15T21:05:25.517Z,66.88
2023-02-15T21:10:20.336Z,89.00
2023-02-15T21:15:36.295Z,85.63
2023-02-15T21:20:31.456Z,86.05
2023-02-15T21:25:34.098Z,75.20
2023-02-15T21:30:27.538Z,79.32
2023-02-15T21:35:21.586Z,76.88
2023-02-15T21:40:14.289Z,76.63
2023-02-15T21:45:37.448Z,67.18
2023-02-15T21:50:47.980Z,63.97
2023-02-15T21:55:41.576Z,56.60
2023-02-15T22:00:35.281Z,58.10
2023-02-15T22:05:31.236Z,52.72
2023-02-15T22:10:28.490Z,55.92
2023-02-15T22:15:25.274Z,49.95
2023-02-15T22:20:21.629Z,50.85
2023-02-15T22:25:38.893Z,50.65
2023-02-15T22:30:37.463Z,48.53
2023-02-15T22:35:34.943Z,44.07
2023-02-15T22:40:34.791Z,42.88
2023-02-15T22:45:29.616Z,65.78
2023-02-15T22:50:26.028Z,50.65
2023-02-15T22:55:20.820Z,40.15
2023-02-15T23:00:21.187Z,43.75
2023-02-15T23:05:19.994Z,33.08
2023-02-15T23:10:21.791Z,36.05
2023-02-15T23:15:15.604Z,34.53
2023-02-15T23:20:14.216Z,47.92
2023-02-15T23:25:11.674Z,31.67
2023-02-15T23:30:10.896Z,33.15
2023-02-15T23:35:11.817Z,35.17
2023-02-15T23:40:23.619Z,30.73
2023-02-15T23:45:23.861Z,32.58
2023-02-15T23:50:26.090Z,34.13
2023-02-15T23:55:20.229Z,38.05
